createdAt,value
2023-03-06T00:00:09.155Z,101069.22
2023-03-06T00:02:42.488Z,101067.69
2023-03-06T00:05:13.631Z,101069.78
2023-03-06T00:07:45.587Z,101064.72
2023-03-06T00:10:20.284Z,101059.78
2023-03-06T00:12:58.039Z,101063.13
2023-03-06T00:15:30.296Z,101053.41
2023-03-06T00:18:01.802Z,101065.34
2023-03-06T00:20:33.379Z,101058.81
2023-03-06T00:23:04.598Z,101048.25
2023-03-06T00:25:39.989Z,101037.41
2023-03-06T00:28:13.835Z,101054.13
2023-03-06T00:30:46.232Z,101052.22
2023-03-06T00:33:17.881Z,101064.50
2023-03-06T00:35:49.680Z,101066.25
2023-03-06T00:38:21.297Z,101064.00
2023-03-06T00:40:53.423Z,101067.19
2023-03-06T00:43:25.031Z,101063.47
2023-03-06T00:45:56.937Z,101059.63
2023-03-06T00:48:27.661Z,101053.00
2023-03-06T00:50:58.859Z,101048.22
2023-03-06T00:53:29.460Z,101040.94
2023-03-06T00:56:00.823Z,101039.44
2023-03-06T00:58:31.593Z,101035.66
2023-03-06T01:01:02.965Z,101038.16
2023-03-06T01:03:34.245Z,101035.56
2023-03-06T01:06:06.660Z,101024.72
2023-03-06T01:08:39.094Z,101039.56
2023-03-06T01:11:10.629Z,101027.69
2023-03-06T01:13:42.343Z,101034.59
2023-03-06T01:16:18.730Z,101037.97
2023-03-06T01:18:52.414Z,101041.31
2023-03-06T01:21:23.634Z,101027.72
2023-03-06T01:23:57.966Z,101024.59
2023-03-06T01:26:29.389Z,101032.72
2023-03-06T01:29:01.002Z,101035.34
2023-03-06T01:31:32.533Z,101025.84
2023-03-06T01:34:04.347Z,101019.38
2023-03-06T01:36:36.179Z,101024.13
2023-03-06T01:39:07.467Z,101021.31
2023-03-06T01:41:38.238Z,101019.34
2023-03-06T01:44:10.382Z,101030.44
2023-03-06T01:46:47.179Z,101024.34
2023-03-06T01:49:26.617Z,101023.84
2023-03-06T01:52:08.128Z,101027.69
2023-03-06T01:54:52.006Z,101030.50
2023-03-06T01:57:31.208Z,101029.19
2023-03-06T02:00:21.775Z,101029.44
2023-03-06T02:02:56.677Z,101020.50
2023-03-06T02:05:28.227Z,101020.72
2023-03-06T02:08:00.523Z,101023.72
2023-03-06T02:10:31.966Z,101013.03
2023-03-06T02:13:03.597Z,101003.75
2023-03-06T02:15:34.883Z,101008.53
2023-03-06T02:18:06.304Z,101003.94
2023-03-06T02:20:42.141Z,101001.53
2023-03-06T02:23:29.595Z,101000.38
2023-03-06T02:26:02.009Z,100999.66
2023-03-06T02:28:33.701Z,100986.16
2023-03-06T02:31:05.395Z,100980.88
2023-03-06T02:33:36.990Z,100978.38
2023-03-06T02:36:09.794Z,100981.50
2023-03-06T02:38:51.273Z,100980.41
2023-03-06T02:41:24.126Z,100988.00
2023-03-06T02:43:56.021Z,100973.47
2023-03-06T02:46:27.411Z,100979.84
2023-03-06T02:49:00.896Z,100980.53
2023-03-06T02:51:32.596Z,100971.88
2023-03-06T02:54:04.977Z,100976.34
2023-03-06T02:56:36.499Z,100971.97
2023-03-06T02:59:07.982Z,100967.66
2023-03-06T03:01:39.805Z,100964.47
2023-03-06T03:04:11.626Z,100962.38
2023-03-06T03:06:43.165Z,100959.88
2023-03-06T03:09:15.621Z,100964.88
2023-03-06T03:11:46.838Z,100968.34
2023-03-06T03:14:18.223Z,100958.94
2023-03-06T03:16:50.502Z,100954.34
2023-03-06T03:19:21.710Z,100964.47
2023-03-06T03:21:53.283Z,100963.38
2023-03-06T03:24:26.717Z,100959.88
2023-03-06T03:26:58.730Z,100960.88
2023-03-06T03:29:31.031Z,100955.97
2023-03-06T03:32:03.946Z,100953.22
2023-03-06T03:34:35.854Z,100947.88
2023-03-06T03:37:08.578Z,100958.84
2023-03-06T03:39:41.153Z,100952.03
2023-03-06T03:42:12.968Z,100964.06
2023-03-06T03:44:44.310Z,100959.94
2023-03-06T03:47:14.989Z,100963.00
2023-03-06T03:49:47.047Z,100959.19
2023-03-06T03:52:19.003Z,100965.47
2023-03-06T03:54:50.873Z,100963.59
2023-03-06T03:57:21.500Z,100967.13
2023-03-06T03:59:55.952Z,100971.88
2023-03-06T04:02:45.562Z,100971.00
2023-03-06T04:05:26.012Z,100970.50
2023-03-06T04:08:00.620Z,100963.72
2023-03-06T04:10:30.971Z,100974.66
2023-03-06T04:13:02.921Z,100969.63
2023-03-06T04:15:34.963Z,100961.81
2023-03-06T04:18:06.654Z,100972.81
2023-03-06T04:20:37.959Z,100972.19
2023-03-06T04:23:09.283Z,100970.03
2023-03-06T04:25:41.591Z,100957.28
2023-03-06T04:28:15.517Z,100965.63
2023-03-06T04:30:46.941Z,100960.66
2023-03-06T04:33:18.699Z,100956.63
2023-03-06T04:35:50.204Z,100958.28
2023-03-06T04:38:27.098Z,100958.59
2023-03-06T04:40:58.892Z,100955.13
2023-03-06T04:43:30.288Z,100965.00
2023-03-06T04:46:01.643Z,100959.69
2023-03-06T04:48:32.346Z,100973.38
2023-03-06T04:51:04.112Z,100976.38
2023-03-06T04:53:35.380Z,100971.78
2023-03-06T04:56:06.954Z,100973.03
2023-03-06T04:58:38.466Z,100972.63
2023-03-06T05:01:09.779Z,100979.28
2023-03-06T05:03:40.480Z,100977.06
2023-03-06T05:06:11.634Z,100985.03
2023-03-06T05:08:42.792Z,100981.75
2023-03-06T05:11:14.379Z,100989.03
2023-03-06T05:13:46.095Z,100992.25
2023-03-06T05:16:17.722Z,100995.34
2023-03-06T05:18:50.591Z,100998.44
2023-03-06T05:21:22.022Z,101009.41
2023-03-06T05:23:53.110Z,101000.84
2023-03-06T05:26:23.669Z,101004.44
2023-03-06T05:28:55.644Z,101007.81
2023-03-06T05:31:26.651Z,101020.25
2023-03-06T05:33:59.224Z,101012.78
2023-03-06T05:36:30.926Z,101020.69
2023-03-06T05:39:01.581Z,101017.50
2023-03-06T05:41:32.457Z,101031.34
2023-03-06T05:44:03.768Z,101029.78
2023-03-06T05:46:34.875Z,101038.94
2023-03-06T05:49:06.083Z,101045.72
2023-03-06T05:51:38.518Z,101051.28
2023-03-06T05:54:10.668Z,101045.13
2023-03-06T05:56:42.882Z,101050.50
2023-03-06T05:59:14.531Z,101052.22
2023-03-06T06:01:45.829Z,101048.06
2023-03-06T06:04:18.044Z,101055.84
2023-03-06T06:06:53.002Z,101051.56
2023-03-06T06:09:24.389Z,101060.66
2023-03-06T06:11:57.420Z,101058.72
2023-03-06T06:14:29.264Z,101059.75
2023-03-06T06:17:00.619Z,101057.41
2023-03-06T06:19:32.280Z,101057.97
2023-03-06T06:22:05.281Z,101067.72
2023-03-06T06:24:36.303Z,101067.72
2023-03-06T06:27:08.062Z,101068.53
2023-03-06T06:29:39.405Z,101079.97
2023-03-06T06:32:10.943Z,101091.72
2023-03-06T06:34:42.099Z,101081.88
2023-03-06T06:37:12.888Z,101084.31
2023-03-06T06:39:44.482Z,101090.94
2023-03-06T06:42:30.488Z,101092.94
2023-03-06T06:45:04.837Z,101090.31
2023-03-06T06:47:36.487Z,101095.09
2023-03-06T06:50:07.537Z,101093.84
2023-03-06T06:52:39.066Z,101100.63
2023-03-06T06:55:10.734Z,101095.31
2023-03-06T06:57:43.659Z,101102.72
2023-03-06T07:00:17.248Z,101111.34
2023-03-06T07:02:50.674Z,101101.38
2023-03-06T07:05:22.231Z,101115.19
2023-03-06T07:07:53.559Z,101108.50
2023-03-06T07:10:24.926Z,101117.75
2023-03-06T07:12:58.042Z,101119.94
2023-03-06T07:15:31.288Z,101112.16
2023-03-06T07:18:02.787Z,101127.16
2023-03-06T07:20:33.484Z,101122.78
2023-03-06T07:23:04.936Z,101130.94
2023-03-06T07:25:36.307Z,101134.69
2023-03-06T07:28:07.385Z,101134.25
2023-03-06T07:30:38.713Z,101152.34
2023-03-06T07:33:09.968Z,101148.25
2023-03-06T07:35:42.199Z,101149.03
2023-03-06T07:38:13.976Z,101168.03
2023-03-06T07:40:45.633Z,101164.28
2023-03-06T07:43:19.472Z,101160.38
2023-03-06T07:46:01.719Z,101161.78
2023-03-06T07:48:33.254Z,101169.78
2023-03-06T07:51:05.832Z,101166.56
2023-03-06T07:53:37.936Z,101166.94
2023-03-06T07:56:12.605Z,101171.41
2023-03-06T07:58:47.397Z,101176.06
2023-03-06T08:01:21.835Z,101181.66
2023-03-06T08:03:53.600Z,101175.97
2023-03-06T08:06:25.199Z,101196.72
2023-03-06T08:08:57.872Z,101198.13
2023-03-06T08:11:31.535Z,101189.28
2023-03-06T08:14:02.971Z,101197.03
2023-03-06T08:16:34.212Z,101211.38
2023-03-06T08:19:05.326Z,101213.81
2023-03-06T08:21:36.431Z,101210.72
2023-03-06T08:24:08.597Z,101215.50
2023-03-06T08:26:40.273Z,101218.00
2023-03-06T08:29:13.013Z,101217.03
2023-03-06T08:31:47.567Z,101223.06
2023-03-06T08:34:21.372Z,101220.75
2023-03-06T08:36:53.220Z,101227.88
2023-03-06T08:39:25.245Z,101224.97
2023-03-06T08:41:56.633Z,101231.75
2023-03-06T08:44:27.878Z,101230.16
2023-03-06T08:46:59.126Z,101232.22
2023-03-06T08:49:30.473Z,101236.75
2023-03-06T08:52:01.868Z,101236.81
2023-03-06T08:54:33.703Z,101238.00
2023-03-06T08:57:05.532Z,101254.59
2023-03-06T08:59:36.023Z,101255.78
2023-03-06T09:02:08.998Z,101254.31
2023-03-06T09:04:40.461Z,101258.69
2023-03-06T09:07:11.158Z,101264.41
2023-03-06T09:09:42.705Z,101267.44
2023-03-06T09:12:13.789Z,101273.97
2023-03-06T09:14:44.993Z,101273.41
2023-03-06T09:17:15.868Z,101280.06
2023-03-06T09:19:46.989Z,101275.44
2023-03-06T09:22:17.869Z,101277.31
2023-03-06T09:24:49.183Z,101280.97
2023-03-06T09:27:20.581Z,101284.78
2023-03-06T09:29:51.685Z,101294.22
2023-03-06T09:32:23.827Z,101283.47
2023-03-06T09:34:55.325Z,101287.22
2023-03-06T09:37:28.188Z,101289.75
2023-03-06T09:40:00.002Z,101288.84
2023-03-06T09:42:35.225Z,101291.63
2023-03-06T09:45:07.774Z,101289.47
2023-03-06T09:48:15.823Z,101294.88
2023-03-06T09:50:53.773Z,101293.50
2023-03-06T09:53:46.128Z,101298.94
2023-03-06T09:56:22.002Z,101291.72
2023-03-06T09:58:58.210Z,101293.72
2023-03-06T10:01:36.543Z,101292.69
2023-03-06T10:04:22.618Z,101290.25
2023-03-06T10:06:58.174Z,101293.56
2023-03-06T10:09:43.811Z,101294.28
2023-03-06T10:12:35.086Z,101306.38
2023-03-06T10:15:34.183Z,101306.41
2023-03-06T10:18:06.691Z,101308.00
2023-03-06T10:20:55.757Z,101304.81
2023-03-06T10:23:45.264Z,101313.00
2023-03-06T10:26:21.792Z,101313.69
2023-03-06T10:29:38.532Z,101311.03
2023-03-06T10:32:49.351Z,101322.88
2023-03-06T10:35:43.209Z,101305.63
2023-03-06T10:38:24.509Z,101315.72
2023-03-06T10:41:18.915Z,101314.94
2023-03-06T10:44:02.503Z,101323.69
2023-03-06T10:46:38.707Z,101321.56
2023-03-06T10:49:31.967Z,101320.66
2023-03-06T10:52:26.430Z,101321.47
2023-03-06T10:55:28.937Z,101326.13
2023-03-06T10:58:03.980Z,101324.50
2023-03-06T11:00:40.232Z,101328.97
2023-03-06T11:03:21.499Z,101323.50
2023-03-06T11:06:16.611Z,101324.63
2023-03-06T11:08:47.831Z,101334.94
2023-03-06T11:11:37.209Z,101339.56
2023-03-06T11:14:17.870Z,101334.94
2023-03-06T11:16:56.375Z,101340.66
2023-03-06T11:19:29.691Z,101342.53
2023-03-06T11:22:20.845Z,101343.38
2023-03-06T11:24:53.395Z,101342.50
2023-03-06T11:27:36.086Z,101353.16
2023-03-06T11:30:21.068Z,101344.13
2023-03-06T11:33:00.055Z,101342.84
2023-03-06T11:35:41.738Z,101342.53
2023-03-06T11:38:44.879Z,101345.81
2023-03-06T11:41:37.811Z,101347.50
2023-03-06T11:44:18.235Z,101344.22
2023-03-06T11:47:08.342Z,101347.50
2023-03-06T11:49:46.890Z,101346.34
2023-03-06T11:52:46.412Z,101343.56
2023-03-06T11:55:43.573Z,101344.63
2023-03-06T11:58:38.474Z,101341.69
2023-03-06T12:01:19.045Z,101346.97
2023-03-06T12:04:08.606Z,101343.72
2023-03-06T12:07:08.438Z,101346.47
2023-03-06T12:09:48.397Z,101354.06
2023-03-06T12:12:40.497Z,101337.19
2023-03-06T12:15:11.646Z,101347.81
2023-03-06T12:17:55.083Z,101354.63
2023-03-06T12:20:46.451Z,101357.03
2023-03-06T12:24:01.381Z,101359.59
2023-03-06T12:26:42.033Z,101358.75
2023-03-06T12:29:35.269Z,101359.00
2023-03-06T12:32:19.304Z,101362.06
2023-03-06T12:35:26.962Z,101355.53
2023-03-06T12:38:13.343Z,101366.94
2023-03-06T12:41:05.736Z,101371.59
2023-03-06T12:43:55.509Z,101372.13
2023-03-06T12:46:28.696Z,101353.88
2023-03-06T12:49:32.912Z,101364.94
2023-03-06T12:52:04.920Z,101364.41
2023-03-06T12:54:37.234Z,101367.09
2023-03-06T12:57:10.841Z,101370.88
2023-03-06T12:59:49.603Z,101367.38
2023-03-06T13:02:51.166Z,101377.16
2023-03-06T13:05:44.377Z,101368.16
2023-03-06T13:08:30.989Z,101354.81
2023-03-06T13:11:38.557Z,101353.69
2023-03-06T13:14:34.091Z,101352.25
2023-03-06T13:17:26.348Z,101347.41
2023-03-06T13:20:16.279Z,101351.94
2023-03-06T13:22:49.475Z,101351.34
2023-03-06T13:25:23.829Z,101335.59
2023-03-06T13:27:55.375Z,101343.28
2023-03-06T13:30:50.933Z,101342.19
2023-03-06T13:33:34.112Z,101331.47
2023-03-06T13:36:33.643Z,101336.50
2023-03-06T13:39:12.273Z,101331.41
2023-03-06T13:41:46.011Z,101330.94
2023-03-06T13:44:26.238Z,101330.94
2023-03-06T13:47:05.290Z,101320.09
2023-03-06T13:49:37.848Z,101323.38
2023-03-06T13:52:44.990Z,101321.00
2023-03-06T13:55:33.038Z,101327.09
2023-03-06T13:58:42.985Z,101329.59
2023-03-06T14:01:37.320Z,101330.44
2023-03-06T14:04:08.559Z,101335.31
2023-03-06T14:06:40.805Z,101342.38
2023-03-06T14:09:45.800Z,101343.16
2023-03-06T14:12:28.102Z,101335.06
2023-03-06T14:15:02.640Z,101342.91
2023-03-06T14:17:40.766Z,101348.19
2023-03-06T14:20:18.229Z,101345.34
2023-03-06T14:22:49.522Z,101343.22
2023-03-06T14:25:30.585Z,101346.97
2023-03-06T14:28:13.604Z,101345.22
2023-03-06T14:30:52.435Z,101353.69
2023-03-06T14:33:44.959Z,101354.13
2023-03-06T14:36:19.032Z,101355.75
2023-03-06T14:38:52.848Z,101352.69
2023-03-06T14:41:41.656Z,101344.78
2023-03-06T14:44:24.409Z,101357.81
2023-03-06T14:46:57.654Z,101353.44
2023-03-06T14:49:28.937Z,101370.53
2023-03-06T14:52:05.647Z,101366.81
2023-03-06T14:54:40.916Z,101363.66
2023-03-06T14:57:21.505Z,101355.94
2023-03-06T14:59:58.494Z,101339.59
2023-03-06T15:02:34.474Z,101356.47
2023-03-06T15:05:35.147Z,101367.59
2023-03-06T15:08:09.487Z,101364.88
2023-03-06T15:10:40.803Z,101351.28
2023-03-06T15:13:11.873Z,101357.88
2023-03-06T15:15:42.960Z,101352.94
2023-03-06T15:18:51.808Z,101353.53
2023-03-06T15:21:24.931Z,101345.56
2023-03-06T15:23:58.161Z,101348.69
2023-03-06T15:26:34.819Z,101359.84
2023-03-06T15:29:15.282Z,101362.66
2023-03-06T15:31:47.677Z,101363.59
2023-03-06T15:34:26.793Z,101359.34
2023-03-06T15:37:01.335Z,101365.66
2023-03-06T15:39:42.955Z,101365.16
2023-03-06T15:42:20.533Z,101375.50
2023-03-06T15:45:06.971Z,101369.66
2023-03-06T15:47:40.652Z,101368.44
2023-03-06T15:50:23.190Z,101364.88
2023-03-06T15:52:55.093Z,101362.69
2023-03-06T15:55:27.705Z,101365.53
2023-03-06T15:58:03.685Z,101362.31
2023-03-06T16:00:42.777Z,101363.16
2023-03-06T16:03:14.993Z,101360.38
2023-03-06T16:05:46.362Z,101361.41
2023-03-06T16:08:17.786Z,101369.88
2023-03-06T16:10:50.632Z,101368.28
2023-03-06T16:13:29.475Z,101364.19
2023-03-06T16:16:00.718Z,101370.03
2023-03-06T16:18:33.013Z,101372.97
2023-03-06T16:21:04.194Z,101367.25
2023-03-06T16:23:40.278Z,101360.84
2023-03-06T16:26:21.827Z,101363.53
2023-03-06T16:28:53.164Z,101355.09
2023-03-06T16:31:24.240Z,101361.53
2023-03-06T16:33:55.776Z,101359.97
2023-03-06T16:36:29.020Z,101363.44
2023-03-06T16:39:00.193Z,101365.94
2023-03-06T16:41:31.307Z,101367.16
2023-03-06T16:44:02.400Z,101368.16
2023-03-06T16:46:33.910Z,101363.75
2023-03-06T16:49:07.466Z,101368.81
2023-03-06T16:51:41.304Z,101367.56
2023-03-06T16:54:12.964Z,101383.94
2023-03-06T16:56:44.733Z,101371.78
2023-03-06T16:59:16.183Z,101377.84
2023-03-06T17:01:47.229Z,101373.47
2023-03-06T17:04:18.275Z,101372.50
2023-03-06T17:06:49.833Z,101383.00
2023-03-06T17:09:20.518Z,101379.66
2023-03-06T17:11:51.816Z,101381.13
2023-03-06T17:14:23.213Z,101381.13
2023-03-06T17:16:57.186Z,101381.63
2023-03-06T17:19:28.507Z,101386.03
2023-03-06T17:22:00.113Z,101383.50
2023-03-06T17:24:31.365Z,101376.63
2023-03-06T17:27:02.881Z,101386.66
2023-03-06T17:29:34.178Z,101371.53
2023-03-06T17:32:05.705Z,101383.09
2023-03-06T17:34:37.213Z,101387.28
2023-03-06T17:37:08.478Z,101388.16
2023-03-06T17:39:41.100Z,101383.91
2023-03-06T17:42:12.432Z,101391.16
2023-03-06T17:44:44.182Z,101384.34
2023-03-06T17:47:15.610Z,101382.63
2023-03-06T17:49:47.223Z,101385.91
2023-03-06T17:52:18.132Z,101393.50
2023-03-06T17:54:49.535Z,101390.81
2023-03-06T17:57:20.745Z,101401.97
2023-03-06T17:59:51.943Z,101399.50
2023-03-06T18:02:23.064Z,101395.97
2023-03-06T18:04:55.180Z,101410.69
2023-03-06T18:07:26.421Z,101405.41
2023-03-06T18:09:58.416Z,101413.22
2023-03-06T18:12:29.479Z,101415.34
2023-03-06T18:15:01.091Z,101412.16
2023-03-06T18:17:33.329Z,101426.09
2023-03-06T18:20:04.982Z,101421.59
2023-03-06T18:22:36.123Z,101423.13
2023-03-06T18:25:07.830Z,101432.34
2023-03-06T18:27:39.307Z,101433.56
2023-03-06T18:30:11.546Z,101436.88
2023-03-06T18:32:43.104Z,101438.59
2023-03-06T18:35:14.256Z,101444.78
2023-03-06T18:37:45.959Z,101441.03
2023-03-06T18:40:17.576Z,101435.63
2023-03-06T18:42:50.027Z,101450.75
2023-03-06T18:45:21.464Z,101450.16
2023-03-06T18:47:52.607Z,101452.31
2023-03-06T18:50:24.025Z,101464.44
2023-03-06T18:52:55.347Z,101461.81
2023-03-06T18:55:26.530Z,101454.16
2023-03-06T18:57:57.601Z,101459.72
2023-03-06T19:00:29.187Z,101460.91
2023-03-06T19:03:00.389Z,101461.00
2023-03-06T19:05:31.294Z,101460.91
2023-03-06T19:08:02.424Z,101468.16
2023-03-06T19:10:37.371Z,101464.59
2023-03-06T19:13:09.803Z,101466.81
2023-03-06T19:15:51.494Z,101465.00
2023-03-06T19:18:22.436Z,101464.28
2023-03-06T19:20:54.531Z,101464.72
2023-03-06T19:23:25.712Z,101466.91
2023-03-06T19:25:59.898Z,101468.75
2023-03-06T19:28:31.094Z,101467.28
2023-03-06T19:31:02.921Z,101464.97
2023-03-06T19:33:33.901Z,101468.03
2023-03-06T19:36:06.686Z,101473.22
2023-03-06T19:38:38.198Z,101452.00
2023-03-06T19:41:14.851Z,101476.53
2023-03-06T19:43:46.813Z,101476.28
2023-03-06T19:46:18.590Z,101474.66
2023-03-06T19:48:50.643Z,101481.19
2023-03-06T19:51:22.200Z,101477.38
2023-03-06T19:53:53.805Z,101474.59
2023-03-06T19:56:25.661Z,101475.72
2023-03-06T19:58:57.730Z,101475.97
2023-03-06T20:01:30.162Z,101473.44
2023-03-06T20:04:02.182Z,101477.28
2023-03-06T20:06:38.144Z,101475.13
2023-03-06T20:09:11.136Z,101467.69
2023-03-06T20:11:42.707Z,101468.31
2023-03-06T20:14:15.045Z,101469.22
2023-03-06T20:16:47.146Z,101470.13
2023-03-06T20:19:18.672Z,101465.84
2023-03-06T20:21:49.479Z,101459.00
2023-03-06T20:24:20.878Z,101464.16
2023-03-06T20:26:52.780Z,101461.94
2023-03-06T20:29:24.003Z,101476.66
2023-03-06T20:31:59.457Z,101474.41
2023-03-06T20:34:30.597Z,101469.50
2023-03-06T20:37:01.884Z,101471.22
2023-03-06T20:39:33.420Z,101462.06
2023-03-06T20:42:05.508Z,101471.09
2023-03-06T20:44:36.511Z,101468.97
2023-03-06T20:47:08.188Z,101477.94
2023-03-06T20:49:39.670Z,101470.97
2023-03-06T20:52:11.028Z,101471.81
2023-03-06T20:54:42.688Z,101465.25
2023-03-06T20:57:14.016Z,101482.22
2023-03-06T20:59:46.543Z,101476.28
2023-03-06T21:02:17.787Z,101467.19
2023-03-06T21:04:49.174Z,101474.25
2023-03-06T21:07:21.244Z,101478.22
2023-03-06T21:09:53.744Z,101464.22
2023-03-06T21:12:25.341Z,101469.50
2023-03-06T21:14:56.531Z,101470.09
2023-03-06T21:17:28.292Z,101475.13
2023-03-06T21:20:00.021Z,101481.78
2023-03-06T21:22:33.338Z,101469.84
2023-03-06T21:25:04.784Z,101483.34
2023-03-06T21:27:36.379Z,101475.34
2023-03-06T21:30:08.639Z,101472.09
2023-03-06T21:32:39.880Z,101473.13
2023-03-06T21:35:11.389Z,101453.97
2023-03-06T21:37:42.709Z,101480.28
2023-03-06T21:40:15.748Z,101472.75
2023-03-06T21:42:47.096Z,101474.63
2023-03-06T21:45:18.728Z,101480.59
2023-03-06T21:47:53.157Z,101481.91
2023-03-06T21:50:25.204Z,101482.19
2023-03-06T21:52:58.274Z,101479.44
2023-03-06T21:55:29.447Z,101461.75
2023-03-06T21:58:00.540Z,101472.16
2023-03-06T22:00:31.717Z,101461.81
2023-03-06T22:03:04.979Z,101465.69
2023-03-06T22:05:36.096Z,101459.38
2023-03-06T22:08:07.129Z,101458.84
2023-03-06T22:10:41.502Z,101456.25
2023-03-06T22:13:13.072Z,101454.47
2023-03-06T22:15:55.023Z,101448.25
2023-03-06T22:18:26.353Z,101452.72
2023-03-06T22:20:59.840Z,101452.19
2023-03-06T22:23:31.141Z,101453.66
2023-03-06T22:26:07.242Z,101450.22
2023-03-06T22:28:39.162Z,101451.28
2023-03-06T22:31:13.411Z,101454.78
2023-03-06T22:33:44.905Z,101447.47
2023-03-06T22:36:17.605Z,101461.56
2023-03-06T22:38:50.565Z,101447.53
2023-03-06T22:41:22.426Z,101448.00
2023-03-06T22:43:53.362Z,101449.91
2023-03-06T22:46:24.944Z,101450.41
2023-03-06T22:48:57.668Z,101437.38
2023-03-06T22:51:30.130Z,101443.47
2023-03-06T22:54:01.725Z,101435.28
2023-03-06T22:56:33.035Z,101441.06
2023-03-06T22:59:03.761Z,101426.91
2023-03-06T23:01:36.424Z,101432.94
2023-03-06T23:04:12.535Z,101438.63
2023-03-06T23:06:46.177Z,101438.88
2023-03-06T23:09:23.609Z,101417.25
2023-03-06T23:12:13.129Z,101413.13
2023-03-06T23:15:02.104Z,101407.72
2023-03-06T23:17:53.737Z,101400.56
2023-03-06T23:20:46.416Z,101403.41
2023-03-06T23:23:35.803Z,101409.66
2023-03-06T23:26:09.477Z,101391.94
2023-03-06T23:28:41.250Z,101394.13
2023-03-06T23:31:15.861Z,101385.66
2023-03-06T23:33:47.193Z,101373.97
2023-03-06T23:36:20.151Z,101391.03
2023-03-06T23:38:51.771Z,101382.78
2023-03-06T23:41:24.474Z,101369.75
2023-03-06T23:43:56.304Z,101376.84
2023-03-06T23:46:27.529Z,101367.88
2023-03-06T23:48:59.041Z,101370.41
2023-03-06T23:51:30.715Z,101361.41
2023-03-06T23:54:01.857Z,101359.59
2023-03-06T23:56:33.398Z,101355.25
2023-03-06T23:59:05.026Z,101349.84
